sensor_id;sensor_type;location;lat;lon;timestamp;pressure;altitude;pressure_sealevel;temperature;humidity
80242;BME280;69556;45.004;7.532;2023-06-26T06:48:46;98594.63;;;23.60;59.56
80242;BME280;69556;45.004;7.532;2023-06-26T06:51:12;98593.53;;;23.72;59.93
80242;BME280;69556;45.004;7.532;2023-06-26T06:53:37;98592.84;;;23.80;60.41
80242;BME280;69556;45.004;7.532;2023-06-26T06:56:03;98590.38;;;23.88;60.26
80242;BME280;69556;45.004;7.532;2023-06-26T06:58:28;98602.63;;;24.01;60.00
80242;BME280;69556;45.004;7.532;2023-06-26T07:00:54;98601.69;;;24.12;60.10
80242;BME280;69556;45.004;7.532;2023-06-26T07:03:19;98598.69;;;24.15;59.36
80242;BME280;69556;45.004;7.532;2023-06-26T07:05:46;98602.31;;;24.25;59.61
80242;BME280;69556;45.004;7.532;2023-06-26T07:08:11;98593.94;;;24.28;59.37
80242;BME280;69556;45.004;7.532;2023-06-26T07:10:37;98592.97;;;24.29;59.02
80242;BME280;69556;45.004;7.532;2023-06-26T07:13:02;98593.25;;;24.36;58.96
80242;BME280;69556;45.004;7.532;2023-06-26T07:15:28;98594.97;;;24.37;58.42
80242;BME280;69556;45.004;7.532;2023-06-26T07:17:53;98593.97;;;24.38;58.67
80242;BME280;69556;45.004;7.532;2023-06-26T07:20:19;98595.28;;;24.43;58.44
80242;BME280;69556;45.004;7.532;2023-06-26T07:22:44;98592.44;;;24.45;58.68
80242;BME280;69556;45.004;7.532;2023-06-26T07:25:10;98591.16;;;24.49;58.26
80242;BME280;69556;45.004;7.532;2023-06-26T07:27:39;98592.44;;;24.54;58.76
80242;BME280;69556;45.004;7.532;2023-06-26T07:30:05;98593.59;;;24.62;58.38
80242;BME280;69556;45.004;7.532;2023-06-26T07:32:31;98590.63;;;24.65;58.15
80242;BME280;69556;45.004;7.532;2023-06-26T07:34:56;98586.38;;;24.72;58.32
80242;BME280;69556;45.004;7.532;2023-06-26T07:37:22;98593.63;;;24.81;57.25
80242;BME280;69556;45.004;7.532;2023-06-26T07:39:48;98592.25;;;24.86;58.03
80242;BME280;69556;45.004;7.532;2023-06-26T07:42:14;98591.81;;;24.91;57.18
80242;BME280;69556;45.004;7.532;2023-06-26T07:44:41;98590.13;;;24.99;56.70
80242;BME280;69556;45.004;7.532;2023-06-26T07:47:06;98581.03;;;25.10;55.99
80242;BME280;69556;45.004;7.532;2023-06-26T07:49:32;98588.84;;;25.13;55.55
80242;BME280;69556;45.004;7.532;2023-06-26T07:51:57;98579.44;;;25.17;55.52
80242;BME280;69556;45.004;7.532;2023-06-26T07:54:22;98580.44;;;25.16;55.56
80242;BME280;69556;45.004;7.532;2023-06-26T07:56:59;98576.19;;;25.23;55.57
80242;BME280;69556;45.004;7.532;2023-06-26T07:59:25;98567.22;;;25.23;55.02
80242;BME280;69556;45.004;7.532;2023-06-26T08:01:52;98585.13;;;25.33;54.59
80242;BME280;69556;45.004;7.532;2023-06-26T08:04:23;98578.25;;;25.39;54.10
80242;BME280;69556;45.004;7.532;2023-06-26T08:06:49;98579.22;;;25.48;54.21
80242;BME280;69556;45.004;7.532;2023-06-26T08:09:16;98568.16;;;25.60;54.39
80242;BME280;69556;45.004;7.532;2023-06-26T08:11:42;98571.97;;;25.67;53.93
80242;BME280;69556;45.004;7.532;2023-06-26T08:14:08;98572.69;;;25.69;52.96
80242;BME280;69556;45.004;7.532;2023-06-26T08:16:33;98570.25;;;25.66;53.08
80242;BME280;69556;45.004;7.532;2023-06-26T08:18:58;98575.84;;;25.65;53.10
80242;BME280;69556;45.004;7.532;2023-06-26T08:21:24;98575.84;;;25.65;53.47
80242;BME280;69556;45.004;7.532;2023-06-26T08:23:49;98573.53;;;25.70;53.53
80242;BME280;69556;45.004;7.532;2023-06-26T08:26:14;98564.53;;;25.79;52.97
80242;BME280;69556;45.004;7.532;2023-06-26T08:28:40;98569.22;;;25.86;52.42
80242;BME280;69556;45.004;7.532;2023-06-26T08:31:05;98566.16;;;25.99;50.91
80242;BME280;69556;45.004;7.532;2023-06-26T08:33:30;98560.16;;;26.05;50.77
80242;BME280;69556;45.004;7.532;2023-06-26T08:35:56;98560.47;;;26.02;51.27
80242;BME280;69556;45.004;7.532;2023-06-26T08:38:21;98560.59;;;26.01;51.17
80242;BME280;69556;45.004;7.532;2023-06-26T08:40:47;98555.69;;;26.14;51.31
80242;BME280;69556;45.004;7.532;2023-06-26T08:43:13;98553.56;;;26.17;51.44
80242;BME280;69556;45.004;7.532;2023-06-26T08:45:38;98555.88;;;26.12;51.78
80242;BME280;69556;45.004;7.532;2023-06-26T08:48:07;98546.25;;;26.18;52.24
80242;BME280;69556;45.004;7.532;2023-06-26T08:50:34;98550.53;;;26.20;51.94
80242;BME280;69556;45.004;7.532;2023-06-26T08:53:21;98556.06;;;26.28;50.60
80242;BME280;69556;45.004;7.532;2023-06-26T08:55:49;98553.09;;;26.32;51.23
80242;BME280;69556;45.004;7.532;2023-06-26T08:58:17;98548.50;;;26.32;50.82
80242;BME280;69556;45.004;7.532;2023-06-26T09:00:42;98544.78;;;26.33;49.65
80242;BME280;69556;45.004;7.532;2023-06-26T09:03:09;98552.47;;;26.38;50.47
80242;BME280;69556;45.004;7.532;2023-06-26T09:05:35;98547.38;;;26.52;48.57
80242;BME280;69556;45.004;7.532;2023-06-26T09:08:01;98552.41;;;26.65;48.65
80242;BME280;69556;45.004;7.532;2023-06-26T09:10:27;98550.09;;;26.70;47.67
80242;BME280;69556;45.004;7.532;2023-06-26T09:12:55;98545.31;;;26.64;48.16
80242;BME280;69556;45.004;7.532;2023-06-26T09:15:22;98553.13;;;26.67;48.61
80242;BME280;69556;45.004;7.532;2023-06-26T09:17:48;98553.31;;;27.01;50.29
80242;BME280;69556;45.004;7.532;2023-06-26T09:20:14;98548.44;;;27.04;49.47
80242;BME280;69556;45.004;7.532;2023-06-26T09:22:42;98549.81;;;27.08;49.15
80242;BME280;69556;45.004;7.532;2023-06-26T09:25:08;98554.84;;;27.03;49.29
80242;BME280;69556;45.004;7.532;2023-06-26T09:27:35;98549.09;;;27.06;49.50
80242;BME280;69556;45.004;7.532;2023-06-26T09:30:05;98547.44;;;27.05;49.06
80242;BME280;69556;45.004;7.532;2023-06-26T09:32:36;98541.53;;;27.10;49.28
80242;BME280;69556;45.004;7.532;2023-06-26T09:35:02;98545.50;;;27.15;48.78
80242;BME280;69556;45.004;7.532;2023-06-26T09:37:28;98550.50;;;27.28;48.15
80242;BME280;69556;45.004;7.532;2023-06-26T09:39:53;98536.84;;;27.38;47.64
80242;BME280;69556;45.004;7.532;2023-06-26T09:42:19;98547.03;;;27.62;46.88
80242;BME280;69556;45.004;7.532;2023-06-26T09:44:46;98543.66;;;27.68;47.25
80242;BME280;69556;45.004;7.532;2023-06-26T09:47:11;98542.31;;;27.72;47.08
80242;BME280;69556;45.004;7.532;2023-06-26T09:49:41;98544.63;;;27.84;46.71
80242;BME280;69556;45.004;7.532;2023-06-26T09:52:08;98529.94;;;27.69;45.67
80242;BME280;69556;45.004;7.532;2023-06-26T09:54:34;98545.22;;;27.70;47.27
80242;BME280;69556;45.004;7.532;2023-06-26T09:57:11;98535.28;;;27.87;47.57
80242;BME280;69556;45.004;7.532;2023-06-26T09:59:37;98536.91;;;27.72;47.78
80242;BME280;69556;45.004;7.532;2023-06-26T10:02:03;98534.28;;;27.88;48.70
80242;BME280;69556;45.004;7.532;2023-06-26T10:04:28;98523.94;;;27.91;47.70
80242;BME280;69556;45.004;7.532;2023-06-26T10:06:55;98528.75;;;28.06;47.90
80242;BME280;69556;45.004;7.532;2023-06-26T10:09:22;98528.16;;;28.20;47.73
80242;BME280;69556;45.004;7.532;2023-06-26T10:12:01;98523.25;;;28.23;47.18
80242;BME280;69556;45.004;7.532;2023-06-26T10:14:31;98513.94;;;28.26;47.34
80242;BME280;69556;45.004;7.532;2023-06-26T10:17:01;98520.31;;;28.59;46.15
80242;BME280;69556;45.004;7.532;2023-06-26T10:19:29;98514.53;;;28.62;46.15
80242;BME280;69556;45.004;7.532;2023-06-26T10:21:57;98511.81;;;28.62;45.58
80242;BME280;69556;45.004;7.532;2023-06-26T10:24:24;98513.41;;;28.72;45.89
80242;BME280;69556;45.004;7.532;2023-06-26T10:26:59;98512.22;;;28.83;45.04
80242;BME280;69556;45.004;7.532;2023-06-26T10:29:27;98512.56;;;28.96;45.18
80242;BME280;69556;45.004;7.532;2023-06-26T10:31:56;98512.41;;;29.06;44.53
80242;BME280;69556;45.004;7.532;2023-06-26T10:34:23;98505.44;;;29.03;44.00
80242;BME280;69556;45.004;7.532;2023-06-26T10:37:01;98514.13;;;29.07;43.66
80242;BME280;69556;45.004;7.532;2023-06-26T10:39:27;98510.34;;;29.00;42.47
80242;BME280;69556;45.004;7.532;2023-06-26T10:42:08;98512.88;;;28.93;43.65
80242;BME280;69556;45.004;7.532;2023-06-26T10:44:41;98506.28;;;28.96;43.70
80242;BME280;69556;45.004;7.532;2023-06-26T10:47:11;98504.41;;;29.04;43.81
80242;BME280;69556;45.004;7.532;2023-06-26T10:49:37;98493.19;;;29.23;43.30
80242;BME280;69556;45.004;7.532;2023-06-26T10:52:07;98495.38;;;29.28;43.36
80242;BME280;69556;45.004;7.532;2023-06-26T10:54:33;98495.25;;;29.38;42.81
80242;BME280;69556;45.004;7.532;2023-06-26T10:56:58;98489.22;;;29.58;43.14
80242;BME280;69556;45.004;7.532;2023-06-26T10:59:25;98488.72;;;29.63;41.78
80242;BME280;69556;45.004;7.532;2023-06-26T11:01:54;98486.47;;;29.74;42.21
80242;BME280;69556;45.004;7.532;2023-06-26T11:04:36;98479.09;;;29.91;42.05
80242;BME280;69556;45.004;7.532;2023-06-26T11:07:20;98486.91;;;30.02;40.38
80242;BME280;69556;45.004;7.532;2023-06-26T11:10:13;98477.75;;;30.26;40.19
80242;BME280;69556;45.004;7.532;2023-06-26T11:12:42;98490.13;;;30.37;39.58
80242;BME280;69556;45.004;7.532;2023-06-26T11:15:10;98486.16;;;30.47;39.79
80242;BME280;69556;45.004;7.532;2023-06-26T11:17:36;98477.22;;;30.61;39.91
80242;BME280;69556;45.004;7.532;2023-06-26T11:20:05;98475.94;;;30.72;39.64
80242;BME280;69556;45.004;7.532;2023-06-26T11:22:34;98488.00;;;31.00;39.37
80242;BME280;69556;45.004;7.532;2023-06-26T11:25:01;98483.09;;;31.19;38.26
80242;BME280;69556;45.004;7.532;2023-06-26T11:30:08;98475.75;;;31.57;37.57
80242;BME280;69556;45.004;7.532;2023-06-26T11:32:35;98483.19;;;31.77;36.82
80242;BME280;69556;45.004;7.532;2023-06-26T11:35:03;98477.69;;;31.92;36.00
80242;BME280;69556;45.004;7.532;2023-06-26T11:37:30;98469.78;;;31.97;36.42
80242;BME280;69556;45.004;7.532;2023-06-26T11:39:55;98470.84;;;31.96;37.00
80242;BME280;69556;45.004;7.532;2023-06-26T11:42:21;98467.91;;;32.12;34.46
80242;BME280;69556;45.004;7.532;2023-06-26T11:44:46;98468.22;;;32.39;34.98
80242;BME280;69556;45.004;7.532;2023-06-26T11:47:20;98468.41;;;32.52;36.29
80242;BME280;69556;45.004;7.532;2023-06-26T11:49:47;98461.94;;;32.74;34.60
80242;BME280;69556;45.004;7.532;2023-06-26T11:52:12;98466.19;;;33.04;33.95
80242;BME280;69556;45.004;7.532;2023-06-26T11:54:39;98469.13;;;33.24;32.94
80242;BME280;69556;45.004;7.532;2023-06-26T11:57:05;98465.50;;;33.17;32.73
80242;BME280;69556;45.004;7.532;2023-06-26T11:59:38;98459.47;;;33.28;33.01
80242;BME280;69556;45.004;7.532;2023-06-26T12:02:07;98459.19;;;33.44;32.46
80242;BME280;69556;45.004;7.532;2023-06-26T12:04:33;98451.91;;;33.64;31.78
80242;BME280;69556;45.004;7.532;2023-06-26T12:07:00;98458.88;;;33.95;31.24
80242;BME280;69556;45.004;7.532;2023-06-26T12:09:29;98453.03;;;34.04;31.25
80242;BME280;69556;45.004;7.532;2023-06-26T12:11:55;98453.13;;;34.31;31.04
80242;BME280;69556;45.004;7.532;2023-06-26T12:14:22;98456.31;;;34.28;31.56
80242;BME280;69556;45.004;7.532;2023-06-26T12:16:48;98451.47;;;34.36;31.43
80242;BME280;69556;45.004;7.532;2023-06-26T12:19:14;98453.00;;;34.52;31.30
80242;BME280;69556;45.004;7.532;2023-06-26T12:24:12;98442.13;;;34.85;30.24
80242;BME280;69556;45.004;7.532;2023-06-26T12:26:41;98448.88;;;34.76;30.24
80242;BME280;69556;45.004;7.532;2023-06-26T12:29:11;98448.22;;;34.74;31.17
80242;BME280;69556;45.004;7.532;2023-06-26T12:31:40;98442.13;;;34.85;30.13
80242;BME280;69556;45.004;7.532;2023-06-26T12:34:10;98443.81;;;34.92;31.15
80242;BME280;69556;45.004;7.532;2023-06-26T12:36:50;98434.94;;;34.90;31.54
80242;BME280;69556;45.004;7.532;2023-06-26T12:39:16;98442.13;;;34.98;31.46
80242;BME280;69556;45.004;7.532;2023-06-26T12:41:46;98432.22;;;35.23;30.97
80242;BME280;69556;45.004;7.532;2023-06-26T12:44:22;98432.44;;;35.35;30.51
80242;BME280;69556;45.004;7.532;2023-06-26T12:46:54;98427.78;;;35.36;29.55
80242;BME280;69556;45.004;7.532;2023-06-26T12:49:19;98427.53;;;35.50;29.27
80242;BME280;69556;45.004;7.532;2023-06-26T12:51:45;98426.47;;;35.51;30.20
80242;BME280;69556;45.004;7.532;2023-06-26T12:54:10;98427.91;;;35.80;29.37
80242;BME280;69556;45.004;7.532;2023-06-26T12:56:36;98427.72;;;36.33;29.85
80242;BME280;69556;45.004;7.532;2023-06-26T12:59:01;98425.72;;;36.02;28.93
80242;BME280;69556;45.004;7.532;2023-06-26T13:01:27;98427.16;;;36.17;29.30
80242;BME280;69556;45.004;7.532;2023-06-26T13:03:53;98414.72;;;36.46;28.50
80242;BME280;69556;45.004;7.532;2023-06-26T13:06:19;98416.78;;;36.19;28.22
80242;BME280;69556;45.004;7.532;2023-06-26T13:08:44;98422.59;;;36.36;28.21
80242;BME280;69556;45.004;7.532;2023-06-26T13:11:10;98409.72;;;36.37;27.68
80242;BME280;69556;45.004;7.532;2023-06-26T13:13:35;98412.28;;;36.70;26.88
80242;BME280;69556;45.004;7.532;2023-06-26T13:16:00;98405.06;;;36.37;28.21
80242;BME280;69556;45.004;7.532;2023-06-26T13:18:27;98407.31;;;36.47;28.32
80242;BME280;69556;45.004;7.532;2023-06-26T13:20:52;98409.81;;;36.61;28.10
80242;BME280;69556;45.004;7.532;2023-06-26T13:23:17;98398.38;;;36.58;27.42
80242;BME280;69556;45.004;7.532;2023-06-26T13:25:44;98396.13;;;36.42;27.74
80242;BME280;69556;45.004;7.532;2023-06-26T13:28:09;98392.53;;;37.04;27.48
80242;BME280;69556;45.004;7.532;2023-06-26T13:30:35;98388.91;;;37.28;26.32
80242;BME280;69556;45.004;7.532;2023-06-26T13:33:00;98401.47;;;37.42;25.37
80242;BME280;69556;45.004;7.532;2023-06-26T13:35:25;98394.19;;;37.05;24.78
80242;BME280;69556;45.004;7.532;2023-06-26T13:37:51;98400.13;;;36.77;25.24
80242;BME280;69556;45.004;7.532;2023-06-26T13:40:16;98402.56;;;36.92;25.48
80242;BME280;69556;45.004;7.532;2023-06-26T13:42:42;98394.19;;;37.12;26.30
80242;BME280;69556;45.004;7.532;2023-06-26T13:45:09;98390.75;;;37.16;26.07
80242;BME280;69556;45.004;7.532;2023-06-26T13:47:34;98385.47;;;37.15;25.97
80242;BME280;69556;45.004;7.532;2023-06-26T13:50:00;98379.72;;;36.91;27.30
80242;BME280;69556;45.004;7.532;2023-06-26T13:52:25;98379.59;;;37.29;25.92
80242;BME280;69556;45.004;7.532;2023-06-26T13:54:50;98376.28;;;37.64;26.54
80242;BME280;69556;45.004;7.532;2023-06-26T13:57:16;98377.16;;;37.39;24.95
80242;BME280;69556;45.004;7.532;2023-06-26T13:59:42;98385.44;;;37.39;25.40
80242;BME280;69556;45.004;7.532;2023-06-26T14:02:07;98382.13;;;37.74;25.39
80242;BME280;69556;45.004;7.532;2023-06-26T14:04:33;98377.81;;;37.96;25.37
80242;BME280;69556;45.004;7.532;2023-06-26T14:06:58;98383.50;;;38.01;23.96
80242;BME280;69556;45.004;7.532;2023-06-26T14:09:24;98372.69;;;38.00;24.74
80242;BME280;69556;45.004;7.532;2023-06-26T14:11:49;98378.13;;;37.88;23.92
80242;BME280;69556;45.004;7.532;2023-06-26T14:14:14;98364.34;;;37.88;23.28
80242;BME280;69556;45.004;7.532;2023-06-26T14:16:40;98371.34;;;38.20;23.68
80242;BME280;69556;45.004;7.532;2023-06-26T14:19:05;98363.22;;;38.25;23.17
80242;BME280;69556;45.004;7.532;2023-06-26T14:21:31;98364.88;;;38.45;22.60
80242;BME280;69556;45.004;7.532;2023-06-26T14:23:58;98359.28;;;38.33;22.66
80242;BME280;69556;45.004;7.532;2023-06-26T14:26:23;98353.75;;;38.21;22.82
80242;BME280;69556;45.004;7.532;2023-06-26T14:28:49;98351.78;;;38.40;23.40
80242;BME280;69556;45.004;7.532;2023-06-26T14:31:14;98350.75;;;38.64;23.12
80242;BME280;69556;45.004;7.532;2023-06-26T14:33:40;98333.47;;;38.69;22.87
80242;BME280;69556;45.004;7.532;2023-06-26T14:36:05;98338.16;;;38.68;22.19
80242;BME280;69556;45.004;7.532;2023-06-26T14:38:30;98343.75;;;38.92;22.84
80242;BME280;69556;45.004;7.532;2023-06-26T14:40:56;98341.81;;;38.92;23.30
80242;BME280;69556;45.004;7.532;2023-06-26T14:43:21;98344.69;;;38.86;22.65
80242;BME280;69556;45.004;7.532;2023-06-26T14:45:47;98340.47;;;38.83;22.16
80242;BME280;69556;45.004;7.532;2023-06-26T14:48:12;98341.22;;;39.02;21.83
80242;BME280;69556;45.004;7.532;2023-06-26T14:50:37;98340.03;;;39.09;22.45
80242;BME280;69556;45.004;7.532;2023-06-26T14:53:03;98333.41;;;39.10;21.91
80242;BME280;69556;45.004;7.532;2023-06-26T14:55:29;98341.84;;;39.27;21.80
80242;BME280;69556;45.004;7.532;2023-06-26T14:57:55;98336.41;;;39.55;22.35
80242;BME280;69556;45.004;7.532;2023-06-26T15:00:20;98338.22;;;39.61;21.67
80242;BME280;69556;45.004;7.532;2023-06-26T15:02:47;98325.38;;;39.20;22.09
80242;BME280;69556;45.004;7.532;2023-06-26T15:05:13;98334.03;;;39.12;22.84
80242;BME280;69556;45.004;7.532;2023-06-26T15:07:38;98326.09;;;39.16;23.39
80242;BME280;69556;45.004;7.532;2023-06-26T15:10:04;98330.28;;;39.30;22.88
80242;BME280;69556;45.004;7.532;2023-06-26T15:12:31;98328.59;;;39.29;23.57
80242;BME280;69556;45.004;7.532;2023-06-26T15:14:56;98321.41;;;39.40;23.20
80242;BME280;69556;45.004;7.532;2023-06-26T15:17:21;98315.44;;;39.71;22.25
80242;BME280;69556;45.004;7.532;2023-06-26T15:19:47;98324.63;;;39.60;22.38
80242;BME280;69556;45.004;7.532;2023-06-26T15:22:12;98319.63;;;40.25;22.55
80242;BME280;69556;45.004;7.532;2023-06-26T15:24:37;98308.84;;;40.12;22.63
80242;BME280;69556;45.004;7.532;2023-06-26T15:27:03;98320.16;;;40.11;22.20
80242;BME280;69556;45.004;7.532;2023-06-26T15:29:28;98318.16;;;39.94;21.93
80242;BME280;69556;45.004;7.532;2023-06-26T15:31:54;98318.19;;;39.43;23.44
80242;BME280;69556;45.004;7.532;2023-06-26T15:34:19;98317.66;;;39.57;23.59
80242;BME280;69556;45.004;7.532;2023-06-26T15:36:45;98309.28;;;39.06;23.82
80242;BME280;69556;45.004;7.532;2023-06-26T15:39:10;98305.94;;;39.27;23.67
80242;BME280;69556;45.004;7.532;2023-06-26T15:41:36;98304.16;;;39.73;23.94
80242;BME280;69556;45.004;7.532;2023-06-26T15:44:05;98300.03;;;40.27;22.22
80242;BME280;69556;45.004;7.532;2023-06-26T15:46:31;98306.97;;;40.29;22.53
80242;BME280;69556;45.004;7.532;2023-06-26T15:48:56;98294.94;;;40.35;22.11
80242;BME280;69556;45.004;7.532;2023-06-26T15:51:21;98293.91;;;40.41;22.62
80242;BME280;69556;45.004;7.532;2023-06-26T15:53:47;98289.22;;;40.42;22.93
80242;BME280;69556;45.004;7.532;2023-06-26T15:56:13;98290.03;;;39.97;21.84
80242;BME280;69556;45.004;7.532;2023-06-26T15:58:38;98279.84;;;40.15;22.56
80242;BME280;69556;45.004;7.532;2023-06-26T16:01:10;98286.97;;;39.82;23.13
80242;BME280;69556;45.004;7.532;2023-06-26T16:03:40;98277.81;;;39.93;21.75
80242;BME280;69556;45.004;7.532;2023-06-26T16:06:09;98275.72;;;40.00;22.40
80242;BME280;69556;45.004;7.532;2023-06-26T16:08:35;98278.75;;;40.16;23.23
80242;BME280;69556;45.004;7.532;2023-06-26T16:11:00;98278.66;;;40.39;22.06
80242;BME280;69556;45.004;7.532;2023-06-26T16:13:27;98273.88;;;40.34;21.24
80242;BME280;69556;45.004;7.532;2023-06-26T16:15:53;98268.44;;;40.11;22.24
80242;BME280;69556;45.004;7.532;2023-06-26T16:18:18;98272.06;;;39.72;22.36
80242;BME280;69556;45.004;7.532;2023-06-26T16:20:43;98279.63;;;39.36;22.50
80242;BME280;69556;45.004;7.532;2023-06-26T16:23:09;98270.94;;;39.56;23.52
80242;BME280;69556;45.004;7.532;2023-06-26T16:25:34;98273.13;;;40.22;23.04
80242;BME280;69556;45.004;7.532;2023-06-26T16:28:00;98269.34;;;40.28;22.59
80242;BME280;69556;45.004;7.532;2023-06-26T16:30:25;98264.91;;;40.44;23.20
80242;BME280;69556;45.004;7.532;2023-06-26T16:32:50;98271.69;;;40.20;22.13
80242;BME280;69556;45.004;7.532;2023-06-26T16:35:16;98270.28;;;39.77;21.83
80242;BME280;69556;45.004;7.532;2023-06-26T16:37:42;98271.06;;;39.49;22.39
80242;BME280;69556;45.004;7.532;2023-06-26T16:40:07;98270.16;;;39.72;22.33
80242;BME280;69556;45.004;7.532;2023-06-26T16:42:33;98275.03;;;39.93;22.83
80242;BME280;69556;45.004;7.532;2023-06-26T16:44:58;98275.94;;;40.27;22.34
80242;BME280;69556;45.004;7.532;2023-06-26T16:47:24;98261.47;;;40.37;21.31
80242;BME280;69556;45.004;7.532;2023-06-26T16:49:49;98271.03;;;40.29;22.02
80242;BME280;69556;45.004;7.532;2023-06-26T16:52:14;98272.44;;;40.32;21.39
80242;BME280;69556;45.004;7.532;2023-06-26T16:54:41;98269.00;;;40.25;21.37
80242;BME280;69556;45.004;7.532;2023-06-26T16:57:06;98272.56;;;39.69;22.78
80242;BME280;69556;45.004;7.532;2023-06-26T16:59:31;98266.94;;;39.75;22.01
80242;BME280;69556;45.004;7.532;2023-06-26T17:01:57;98272.53;;;39.52;22.42
80242;BME280;69556;45.004;7.532;2023-06-26T17:04:27;98268.06;;;39.91;22.19
80242;BME280;69556;45.004;7.532;2023-06-26T17:06:52;98273.66;;;39.68;22.92
80242;BME280;69556;45.004;7.532;2023-06-26T17:09:18;98273.50;;;39.23;22.60
80242;BME280;69556;45.004;7.532;2023-06-26T17:11:43;98278.56;;;39.37;22.92
80242;BME280;69556;45.004;7.532;2023-06-26T17:14:08;98267.59;;;39.31;23.07
80242;BME280;69556;45.004;7.532;2023-06-26T17:16:34;98267.59;;;39.31;22.97
80242;BME280;69556;45.004;7.532;2023-06-26T17:19:00;98270.63;;;39.06;23.01
80242;BME280;69556;45.004;7.532;2023-06-26T17:21:25;98266.81;;;39.07;24.19
80242;BME280;69556;45.004;7.532;2023-06-26T17:23:50;98262.00;;;39.37;23.82
80242;BME280;69556;45.004;7.532;2023-06-26T17:26:16;98271.09;;;39.26;23.89
80242;BME280;69556;45.004;7.532;2023-06-26T17:28:41;98268.94;;;39.28;24.26
80242;BME280;69556;45.004;7.532;2023-06-26T17:31:07;98268.03;;;38.99;24.31
80242;BME280;69556;45.004;7.532;2023-06-26T17:33:32;98257.78;;;38.65;25.05
80242;BME280;69556;45.004;7.532;2023-06-26T17:35:57;98262.47;;;38.53;25.15
80242;BME280;69556;45.004;7.532;2023-06-26T17:38:23;98267.75;;;38.66;24.76
80242;BME280;69556;45.004;7.532;2023-06-26T17:40:48;98269.69;;;37.94;25.74
80242;BME280;69556;45.004;7.532;2023-06-26T17:43:14;98264.44;;;37.26;26.68
80242;BME280;69556;45.004;7.532;2023-06-26T17:45:39;98268.16;;;36.71;27.62
80242;BME280;69556;45.004;7.532;2023-06-26T17:48:04;98264.06;;;36.30;28.63
80242;BME280;69556;45.004;7.532;2023-06-26T17:50:30;98258.31;;;36.00;29.59
80242;BME280;69556;45.004;7.532;2023-06-26T17:52:56;98266.97;;;35.66;30.63
80242;BME280;69556;45.004;7.532;2023-06-26T17:55:24;98270.00;;;35.38;30.28
80242;BME280;69556;45.004;7.532;2023-06-26T17:57:49;98264.25;;;34.88;32.19
80242;BME280;69556;45.004;7.532;2023-06-26T18:00:15;98263.41;;;34.48;31.06
80242;BME280;69556;45.004;7.532;2023-06-26T18:02:41;98262.16;;;34.25;31.96
80242;BME280;69556;45.004;7.532;2023-06-26T18:05:07;98263.78;;;34.13;32.58
80242;BME280;69556;45.004;7.532;2023-06-26T18:07:32;98273.91;;;34.05;33.82
80242;BME280;69556;45.004;7.532;2023-06-26T18:09:58;98270.09;;;33.87;33.04
80242;BME280;69556;45.004;7.532;2023-06-26T18:12:23;98271.28;;;33.71;34.26
80242;BME280;69556;45.004;7.532;2023-06-26T18:14:49;98267.84;;;33.56;34.52
80242;BME280;69556;45.004;7.532;2023-06-26T18:17:14;98267.19;;;33.47;35.02
80242;BME280;69556;45.004;7.532;2023-06-26T18:19:40;98278.28;;;33.33;34.05
80242;BME280;69556;45.004;7.532;2023-06-26T18:22:05;98273.34;;;33.15;34.42
80242;BME280;69556;45.004;7.532;2023-06-26T18:24:31;98283.53;;;33.00;34.95
80242;BME280;69556;45.004;7.532;2023-06-26T18:26:56;98275.41;;;32.79;34.60
80242;BME280;69556;45.004;7.532;2023-06-26T18:29:21;98275.06;;;32.60;35.61
80242;BME280;69556;45.004;7.532;2023-06-26T18:31:47;98269.34;;;32.34;36.02
80242;BME280;69556;45.004;7.532;2023-06-26T18:34:12;98275.38;;;32.23;35.86
80242;BME280;69556;45.004;7.532;2023-06-26T18:36:37;98277.03;;;32.03;36.77
80242;BME280;69556;45.004;7.532;2023-06-26T18:39:03;98284.06;;;31.90;36.25
80242;BME280;69556;45.004;7.532;2023-06-26T18:41:30;98277.88;;;31.82;36.44
80242;BME280;69556;45.004;7.532;2023-06-26T18:43:55;98276.88;;;31.68;36.21
80242;BME280;69556;45.004;7.532;2023-06-26T18:46:20;98280.16;;;31.64;36.15
80242;BME280;69556;45.004;7.532;2023-06-26T18:48:46;98282.00;;;31.57;36.86
80242;BME280;69556;45.004;7.532;2023-06-26T18:51:12;98276.22;;;31.52;36.86
80242;BME280;69556;45.004;7.532;2023-06-26T18:53:38;98278.63;;;31.40;38.80
80242;BME280;69556;45.004;7.532;2023-06-26T18:56:09;98275.91;;;31.25;39.32
80242;BME280;69556;45.004;7.532;2023-06-26T18:58:37;98272.25;;;31.03;40.02
80242;BME280;69556;45.004;7.532;2023-06-26T19:01:02;98280.69;;;30.94;40.06
80242;BME280;69556;45.004;7.532;2023-06-26T19:03:27;98277.69;;;30.74;41.04
80242;BME280;69556;45.004;7.532;2023-06-26T19:05:53;98280.47;;;30.51;42.09
80242;BME280;69556;45.004;7.532;2023-06-26T19:08:18;98285.56;;;30.32;43.20
80242;BME280;69556;45.004;7.532;2023-06-26T19:10:43;98277.34;;;30.17;44.08
80242;BME280;69556;45.004;7.532;2023-06-26T19:13:11;98281.22;;;30.00;45.39
80242;BME280;69556;45.004;7.532;2023-06-26T19:15:37;98289.63;;;29.82;45.67
80242;BME280;69556;45.004;7.532;2023-06-26T19:18:03;98284.84;;;29.61;46.29
80242;BME280;69556;45.004;7.532;2023-06-26T19:20:28;98288.25;;;29.24;47.39
80242;BME280;69556;45.004;7.532;2023-06-26T19:22:53;98287.97;;;29.11;47.57
80242;BME280;69556;45.004;7.532;2023-06-26T19:25:20;98286.16;;;28.96;47.78
80242;BME280;69556;45.004;7.532;2023-06-26T19:27:45;98286.50;;;28.84;47.56
80242;BME280;69556;45.004;7.532;2023-06-26T19:30:12;98285.38;;;28.71;48.45
80242;BME280;69556;45.004;7.532;2023-06-26T19:32:37;98290.44;;;28.66;48.17
80242;BME280;69556;45.004;7.532;2023-06-26T19:35:03;98296.75;;;28.58;48.29
80242;BME280;69556;45.004;7.532;2023-06-26T19:37:29;98291.50;;;28.49;48.56
80242;BME280;69556;45.004;7.532;2023-06-26T19:39:54;98296.25;;;28.55;48.34
80242;BME280;69556;45.004;7.532;2023-06-26T19:42:19;98292.00;;;28.52;47.95
80242;BME280;69556;45.004;7.532;2023-06-26T19:44:45;98296.06;;;28.48;48.23
80242;BME280;69556;45.004;7.532;2023-06-26T19:47:10;98296.94;;;28.40;48.47
80242;BME280;69556;45.004;7.532;2023-06-26T19:49:35;98293.72;;;28.29;48.52